createdAt,value
2017-10-12T00:01:49.265Z,99.90
2017-10-12T00:04:18.180Z,99.90
2017-10-12T00:06:46.306Z,99.90
2017-10-12T00:09:14.505Z,99.90
2017-10-12T00:11:43.390Z,99.90
2017-10-12T00:14:12.306Z,99.90
2017-10-12T00:16:40.432Z,99.90
2017-10-12T00:19:09.249Z,99.90
2017-10-12T00:21:38.153Z,99.90
2017-10-12T00:24:06.283Z,99.90
2017-10-12T00:26:34.393Z,99.90
2017-10-12T00:29:02.521Z,99.90
2017-10-12T00:31:30.652Z,99.90
2017-10-12T00:33:58.764Z,99.90
2017-10-12T00:36:26.919Z,99.90
2017-10-12T00:38:55.802Z,99.90
2017-10-12T00:41:23.921Z,99.90
2017-10-12T00:43:52.825Z,99.90
2017-10-12T00:46:20.953Z,99.90
2017-10-12T00:48:49.842Z,99.90
2017-10-12T00:51:18.007Z,99.90
2017-10-12T00:53:46.154Z,99.90
2017-10-12T00:56:14.259Z,99.90
2017-10-12T00:58:42.408Z,99.90
2017-10-12T01:01:10.530Z,99.90
2017-10-12T01:03:39.423Z,99.90
2017-10-12T01:06:08.335Z,99.90
2017-10-12T01:08:36.458Z,99.90
2017-10-12T01:11:04.599Z,99.90
2017-10-12T01:13:32.728Z,99.90
2017-10-12T01:16:01.631Z,99.90
2017-10-12T01:18:29.788Z,99.90
2017-10-12T01:20:58.252Z,99.90
2017-10-12T01:23:26.356Z,99.90
2017-10-12T01:25:55.245Z,99.90
2017-10-12T01:28:24.144Z,99.90
2017-10-12T01:30:52.290Z,99.90
2017-10-12T01:33:20.413Z,99.90
2017-10-12T01:35:48.537Z,99.90
2017-10-12T01:38:17.443Z,99.90
2017-10-12T01:40:46.312Z,99.90
2017-10-12T01:43:14.763Z,99.90
2017-10-12T01:45:43.651Z,99.90
2017-10-12T01:48:11.812Z,99.90
2017-10-12T01:50:39.931Z,99.90
2017-10-12T01:53:08.840Z,99.90
2017-10-12T01:55:37.726Z,99.90
2017-10-12T01:58:06.604Z,99.90
2017-10-12T02:00:35.499Z,99.90
2017-10-12T02:03:04.378Z,99.90
2017-10-12T02:05:32.535Z,99.90
2017-10-12T02:08:00.681Z,99.90
2017-10-12T02:10:28.817Z,99.90
2017-10-12T02:12:57.696Z,99.90
2017-10-12T02:15:25.839Z,99.90
2017-10-12T02:17:53.968Z,99.90
2017-10-12T02:20:22.097Z,99.90
2017-10-12T02:22:50.234Z,99.90
2017-10-12T02:25:18.346Z,99.90
2017-10-12T02:27:47.243Z,99.90
2017-10-12T02:30:16.139Z,99.90
2017-10-12T02:32:45.315Z,99.90
2017-10-12T02:35:13.428Z,99.90
2017-10-12T02:37:41.573Z,99.90
2017-10-12T02:40:09.722Z,99.90
2017-10-12T02:42:37.833Z,99.90
2017-10-12T02:45:05.969Z,99.90
2017-10-12T02:47:34.081Z,99.90
2017-10-12T02:50:02.212Z,99.90
2017-10-12T02:52:30.364Z,99.90
2017-10-12T02:54:58.643Z,99.90
2017-10-12T02:57:26.760Z,99.90
2017-10-12T02:59:55.649Z,99.90
2017-10-12T03:02:25.380Z,99.90
2017-10-12T03:04:53.504Z,99.90
2017-10-12T03:07:21.632Z,99.90
2017-10-12T03:09:49.755Z,99.90
2017-10-12T03:12:17.919Z,99.90
2017-10-12T03:14:46.043Z,99.90
2017-10-12T03:17:14.180Z,99.90
2017-10-12T03:19:43.080Z,99.90
2017-10-12T03:22:11.221Z,99.90
2017-10-12T03:24:39.324Z,99.90
2017-10-12T03:27:08.207Z,99.90
2017-10-12T03:29:37.101Z,99.90
2017-10-12T03:32:05.991Z,99.90
2017-10-12T03:34:35.032Z,99.90
2017-10-12T03:37:03.201Z,99.90
2017-10-12T03:39:31.636Z,99.90
2017-10-12T03:42:00.526Z,99.90
2017-10-12T03:44:29.412Z,99.90
2017-10-12T03:46:57.551Z,99.90
2017-10-12T03:49:25.660Z,99.90
2017-10-12T03:51:54.571Z,99.90
2017-10-12T03:54:22.688Z,99.90
2017-10-12T03:56:50.814Z,99.90
2017-10-12T03:59:18.945Z,99.90
2017-10-12T04:01:47.355Z,99.90
2017-10-12T04:04:16.239Z,99.90
2017-10-12T04:06:45.135Z,99.90
2017-10-12T04:09:14.039Z,99.90
2017-10-12T04:11:42.171Z,99.90
2017-10-12T04:14:10.291Z,99.90
2017-10-12T04:16:38.417Z,99.90
2017-10-12T04:19:06.568Z,99.90
2017-10-12T04:21:35.451Z,99.90
2017-10-12T04:24:03.586Z,99.90
2017-10-12T04:26:31.707Z,99.90
2017-10-12T04:29:00.138Z,99.90
2017-10-12T04:31:29.029Z,99.90
2017-10-12T04:33:57.151Z,99.90
2017-10-12T04:36:25.282Z,99.90
2017-10-12T04:38:53.396Z,99.90
2017-10-12T04:41:21.550Z,99.90
2017-10-12T04:43:49.666Z,99.90
2017-10-12T04:46:18.578Z,99.90
2017-10-12T04:48:46.699Z,99.90
2017-10-12T04:51:14.855Z,99.90
2017-10-12T04:53:43.009Z,99.90
2017-10-12T04:56:11.116Z,99.90
2017-10-12T04:58:39.247Z,99.90
2017-10-12T05:01:07.363Z,99.90
2017-10-12T05:03:36.707Z,99.90
2017-10-12T05:06:04.826Z,99.90
2017-10-12T05:08:32.956Z,99.90
2017-10-12T05:11:01.113Z,99.90
2017-10-12T05:13:30.011Z,99.90
2017-10-12T05:15:58.893Z,99.90
2017-10-12T05:18:27.814Z,99.90
2017-10-12T05:20:55.910Z,99.90
2017-10-12T05:23:24.065Z,99.90
2017-10-12T05:25:52.172Z,99.90
2017-10-12T05:28:20.304Z,99.90
2017-10-12T05:30:48.436Z,99.90
2017-10-12T05:33:16.549Z,99.90
2017-10-12T05:35:44.991Z,99.90
2017-10-12T05:38:13.884Z,99.90
2017-10-12T05:40:42.769Z,99.90
2017-10-12T05:43:11.704Z,99.90
2017-10-12T05:45:39.827Z,99.90
2017-10-12T05:48:08.764Z,99.90
2017-10-12T05:50:36.867Z,99.90
2017-10-12T05:53:05.000Z,99.90
2017-10-12T05:55:33.128Z,99.90
2017-10-12T05:58:01.253Z,99.90
2017-10-12T06:00:29.415Z,99.90
2017-10-12T06:02:58.323Z,99.90
2017-10-12T06:05:26.478Z,99.90
2017-10-12T06:07:55.367Z,99.90
2017-10-12T06:10:23.504Z,99.90
2017-10-12T06:12:52.388Z,99.90
2017-10-12T06:15:20.515Z,99.90
2017-10-12T06:17:48.644Z,99.90
2017-10-12T06:20:17.533Z,99.90
2017-10-12T06:22:46.436Z,99.90
2017-10-12T06:25:14.564Z,99.90
2017-10-12T06:27:42.723Z,99.90
2017-10-12T06:30:10.865Z,99.90
2017-10-12T06:32:39.004Z,99.90
2017-10-12T06:35:07.131Z,99.90
2017-10-12T06:37:35.312Z,99.90
2017-10-12T06:40:03.443Z,99.90
2017-10-12T06:42:31.579Z,99.90
2017-10-12T06:44:59.738Z,99.90
2017-10-12T06:47:27.871Z,99.90
2017-10-12T06:49:56.010Z,99.90
2017-10-12T06:52:24.909Z,99.90
2017-10-12T06:54:53.839Z,99.90
2017-10-12T06:57:21.949Z,99.90
2017-10-12T06:59:50.366Z,99.90
2017-10-12T07:02:19.288Z,99.20
2017-10-12T07:04:47.421Z,99.10
2017-10-12T07:07:15.568Z,98.70
2017-10-12T07:09:43.695Z,98.10
2017-10-12T07:12:11.830Z,96.40
2017-10-12T07:14:39.967Z,96.10
2017-10-12T07:17:08.401Z,95.70
2017-10-12T07:19:36.540Z,95.20
2017-10-12T07:22:04.671Z,94.50
2017-10-12T07:24:32.816Z,94.00
2017-10-12T07:27:00.935Z,94.00
2017-10-12T07:29:29.113Z,93.40
2017-10-12T07:31:57.235Z,92.70
2017-10-12T07:34:25.385Z,92.40
2017-10-12T07:36:53.562Z,92.00
2017-10-12T07:39:22.468Z,92.00
2017-10-12T07:41:51.460Z,91.70
2017-10-12T07:44:19.614Z,91.70
2017-10-12T07:46:48.523Z,90.80
2017-10-12T07:49:16.655Z,90.80
2017-10-12T07:51:45.597Z,90.40
2017-10-12T07:54:13.728Z,90.40
2017-10-12T07:56:41.876Z,90.60
2017-10-12T07:59:10.008Z,90.80
2017-10-12T08:01:38.142Z,90.50
2017-10-12T08:04:06.467Z,89.70
2017-10-12T08:06:34.583Z,89.80
2017-10-12T08:09:02.751Z,89.00
2017-10-12T08:11:30.895Z,89.10
2017-10-12T08:13:59.343Z,88.90
2017-10-12T08:16:27.476Z,89.00
2017-10-12T08:18:57.121Z,88.30
2017-10-12T08:21:26.034Z,88.20
2017-10-12T08:23:54.186Z,88.20
2017-10-12T08:26:23.110Z,87.20
2017-10-12T08:28:51.303Z,87.20
2017-10-12T08:31:19.474Z,87.10
2017-10-12T08:33:47.592Z,86.10
2017-10-12T08:36:16.517Z,85.50
2017-10-12T08:38:44.639Z,85.30
2017-10-12T08:41:12.762Z,84.60
2017-10-12T08:43:40.917Z,85.10
2017-10-12T08:46:09.043Z,84.20
2017-10-12T08:48:37.221Z,83.90
2017-10-12T08:51:05.349Z,81.60
2017-10-12T08:53:33.489Z,81.90
2017-10-12T08:56:01.706Z,81.20
2017-10-12T08:58:29.901Z,81.30
2017-10-12T09:00:58.040Z,81.40
2017-10-12T09:03:26.373Z,80.60
2017-10-12T09:05:54.499Z,80.70
2017-10-12T09:08:22.625Z,80.20
2017-10-12T09:10:51.547Z,79.30
2017-10-12T09:13:19.662Z,79.30
2017-10-12T09:15:47.814Z,79.80
2017-10-12T09:18:16.727Z,80.40
2017-10-12T09:20:44.862Z,80.40
2017-10-12T09:23:12.989Z,80.10
2017-10-12T09:25:42.195Z,79.00
2017-10-12T09:28:11.088Z,78.60
2017-10-12T09:30:39.236Z,78.60
2017-10-12T09:33:07.368Z,78.30
2017-10-12T09:35:35.501Z,78.30
2017-10-12T09:38:04.405Z,79.00
2017-10-12T09:40:32.548Z,79.00
2017-10-12T09:43:00.801Z,77.80
2017-10-12T09:45:28.920Z,76.60
2017-10-12T09:47:57.368Z,76.80
2017-10-12T09:50:25.491Z,75.60
2017-10-12T09:52:53.659Z,75.30
2017-10-12T09:55:21.795Z,74.30
2017-10-12T09:57:49.924Z,73.00
2017-10-12T10:00:18.835Z,73.60
2017-10-12T10:02:47.005Z,73.50
2017-10-12T10:05:15.150Z,73.80
2017-10-12T10:07:43.269Z,73.30
2017-10-12T10:10:12.195Z,74.70
2017-10-12T10:12:40.324Z,73.90
2017-10-12T10:15:08.482Z,72.60
2017-10-12T10:17:37.386Z,73.30
2017-10-12T10:20:05.528Z,73.30
2017-10-12T10:22:33.680Z,73.50
2017-10-12T10:25:01.825Z,74.00
2017-10-12T10:27:30.730Z,76.20
2017-10-12T10:29:58.864Z,76.20
2017-10-12T10:32:27.003Z,76.80
2017-10-12T10:34:55.136Z,76.40
2017-10-12T10:37:24.031Z,76.80
2017-10-12T10:39:52.923Z,76.40
2017-10-12T10:42:21.812Z,76.30
2017-10-12T10:44:50.707Z,76.40
2017-10-12T10:47:18.863Z,76.40
2017-10-12T10:49:47.780Z,77.50
2017-10-12T10:52:15.902Z,77.30
2017-10-12T10:54:44.194Z,78.60
2017-10-12T10:57:12.320Z,80.00
2017-10-12T10:59:40.470Z,80.00
2017-10-12T11:02:09.366Z,81.20
2017-10-12T11:04:37.492Z,81.10
2017-10-12T11:07:05.640Z,80.90
2017-10-12T11:09:33.773Z,81.70
2017-10-12T11:12:01.931Z,82.90
2017-10-12T11:14:30.831Z,84.60
2017-10-12T11:17:00.020Z,85.80
2017-10-12T11:19:28.916Z,87.00
2017-10-12T11:21:57.821Z,87.80
2017-10-12T11:24:25.960Z,87.90
2017-10-12T11:26:54.861Z,89.40
2017-10-12T11:29:23.760Z,89.60
2017-10-12T11:31:52.422Z,89.50
2017-10-12T11:34:21.353Z,90.20
2017-10-12T11:36:49.469Z,90.20
2017-10-12T11:39:17.991Z,90.40
2017-10-12T11:41:46.905Z,90.60
2017-10-12T11:44:15.024Z,90.60
2017-10-12T11:46:43.952Z,90.90
2017-10-12T11:49:12.093Z,90.70
2017-10-12T11:51:40.238Z,91.00
2017-10-12T11:54:08.377Z,91.30
2017-10-12T11:56:36.512Z,91.30
2017-10-12T11:59:05.413Z,91.30
2017-10-12T12:01:34.325Z,91.40
2017-10-12T12:04:02.447Z,91.30
2017-10-12T12:06:30.610Z,91.60
2017-10-12T12:08:58.745Z,91.60
2017-10-12T12:11:26.921Z,91.80
2017-10-12T12:13:55.082Z,91.70
2017-10-12T12:16:23.226Z,91.80
2017-10-12T12:18:51.369Z,91.80
2017-10-12T12:21:19.486Z,92.10
2017-10-12T12:23:48.503Z,91.90
2017-10-12T12:26:17.385Z,91.90
2017-10-12T12:28:45.534Z,91.80
2017-10-12T12:31:14.422Z,92.10
2017-10-12T12:33:43.356Z,92.00
2017-10-12T12:36:11.509Z,92.00
2017-10-12T12:38:40.464Z,91.80
2017-10-12T12:41:08.629Z,91.70
2017-10-12T12:43:36.761Z,91.40
2017-10-12T12:46:04.940Z,91.20
2017-10-12T12:48:33.077Z,90.40
2017-10-12T12:51:02.241Z,87.20
2017-10-12T12:53:30.376Z,87.10
2017-10-12T12:55:58.515Z,86.40
2017-10-12T12:58:26.647Z,86.90
2017-10-12T13:00:54.796Z,87.50
2017-10-12T13:03:22.965Z,88.30
2017-10-12T13:05:51.107Z,88.00
2017-10-12T13:08:20.038Z,88.60
2017-10-12T13:10:48.167Z,88.30
2017-10-12T13:13:16.365Z,88.70
2017-10-12T13:15:44.539Z,88.90
2017-10-12T13:18:13.458Z,89.00
2017-10-12T13:20:41.631Z,88.90
2017-10-12T13:23:09.882Z,88.00
2017-10-12T13:25:38.076Z,87.40
2017-10-12T13:28:06.341Z,87.50
2017-10-12T13:30:34.498Z,87.60
2017-10-12T13:33:02.615Z,88.30
2017-10-12T13:35:30.838Z,88.60
2017-10-12T13:37:59.770Z,88.70
2017-10-12T13:40:27.924Z,88.70
2017-10-12T13:42:56.118Z,88.20
2017-10-12T13:45:24.321Z,87.70
2017-10-12T13:47:52.509Z,88.30
2017-10-12T13:50:21.477Z,88.70
2017-10-12T13:52:49.739Z,88.70
2017-10-12T13:55:18.049Z,89.40
2017-10-12T13:57:46.383Z,89.80
2017-10-12T14:00:14.705Z,90.00
2017-10-12T14:02:43.802Z,89.10
2017-10-12T14:05:11.934Z,89.10
2017-10-12T14:07:40.072Z,88.20
2017-10-12T14:10:08.262Z,87.60
2017-10-12T14:12:36.382Z,86.60
2017-10-12T14:15:04.558Z,87.50
2017-10-12T14:17:32.690Z,88.40
2017-10-12T14:20:00.854Z,89.00
2017-10-12T14:22:29.006Z,89.40
2017-10-12T14:24:57.887Z,89.70
2017-10-12T14:27:26.811Z,90.30
2017-10-12T14:29:54.928Z,90.30
2017-10-12T14:32:23.103Z,90.10
2017-10-12T14:34:51.240Z,89.60
2017-10-12T14:37:19.370Z,89.90
2017-10-12T14:39:47.507Z,90.20
2017-10-12T14:42:16.028Z,90.20
2017-10-12T14:44:44.171Z,90.10
2017-10-12T14:47:12.332Z,90.00
2017-10-12T14:49:40.497Z,90.00
2017-10-12T14:52:08.678Z,90.10
2017-10-12T14:54:36.819Z,89.60
2017-10-12T14:57:04.957Z,89.50
2017-10-12T14:59:33.098Z,89.00
2017-10-12T15:02:01.218Z,88.90
2017-10-12T15:04:29.377Z,88.20
2017-10-12T15:06:58.280Z,84.70
2017-10-12T15:09:26.397Z,84.70
2017-10-12T15:11:54.565Z,80.80
2017-10-12T15:14:22.688Z,77.40
2017-10-12T15:16:51.596Z,74.00
2017-10-12T15:19:19.723Z,74.00
2017-10-12T15:21:47.867Z,73.10
2017-10-12T15:24:15.994Z,73.40
2017-10-12T15:26:44.145Z,73.50
2017-10-12T15:29:12.278Z,75.40
2017-10-12T15:31:40.407Z,76.90
2017-10-12T15:34:09.326Z,79.60
2017-10-12T15:36:37.467Z,79.60
2017-10-12T15:39:06.367Z,82.30
2017-10-12T15:41:34.557Z,82.20
2017-10-12T15:44:02.690Z,83.50
2017-10-12T15:46:31.592Z,84.70
2017-10-12T15:49:00.887Z,85.80
2017-10-12T15:51:29.805Z,86.50
2017-10-12T15:53:57.954Z,86.50
2017-10-12T15:56:26.875Z,88.10
2017-10-12T15:58:55.049Z,88.10
2017-10-12T16:01:23.219Z,88.60
2017-10-12T16:03:51.358Z,89.40
2017-10-12T16:06:20.278Z,89.60
2017-10-12T16:08:48.403Z,89.60
2017-10-12T16:11:16.648Z,90.00
2017-10-12T16:13:45.060Z,90.00
2017-10-12T16:16:13.285Z,90.30
2017-10-12T16:18:41.470Z,90.40
2017-10-12T16:21:09.635Z,90.50
2017-10-12T16:23:37.777Z,90.70
2017-10-12T16:26:05.943Z,90.80
2017-10-12T16:28:34.111Z,91.10
2017-10-12T16:31:02.827Z,91.60
2017-10-12T16:33:31.740Z,91.70
2017-10-12T16:35:59.880Z,91.70
2017-10-12T16:38:28.352Z,91.90
2017-10-12T16:40:57.253Z,92.20
2017-10-12T16:43:25.391Z,92.20
2017-10-12T16:45:53.540Z,92.50
2017-10-12T16:48:22.111Z,92.60
2017-10-12T16:53:18.432Z,93.00
2017-10-12T16:55:46.604Z,93.30
2017-10-12T16:58:14.844Z,93.40
2017-10-12T17:00:43.358Z,93.60
2017-10-12T17:03:12.236Z,94.00
2017-10-12T17:05:41.330Z,94.00
2017-10-12T17:08:09.512Z,94.20
2017-10-12T17:13:05.837Z,94.60
2017-10-12T17:15:34.746Z,95.30
2017-10-12T17:18:02.949Z,95.00
2017-10-12T17:20:31.135Z,95.10
2017-10-12T17:23:00.341Z,95.50
2017-10-12T17:25:29.561Z,95.70
2017-10-12T17:27:57.910Z,95.70
2017-10-12T17:30:27.047Z,96.20
2017-10-12T17:32:55.412Z,96.20
2017-10-12T17:35:24.527Z,97.10
2017-10-12T17:37:52.879Z,96.70
2017-10-12T17:40:22.015Z,97.20
2017-10-12T17:42:50.386Z,97.20
2017-10-12T17:45:18.815Z,97.40
2017-10-12T17:47:47.296Z,97.60
2017-10-12T17:50:15.710Z,97.70
2017-10-12T17:52:44.723Z,97.90
2017-10-12T17:55:13.208Z,98.20
2017-10-12T17:57:41.636Z,98.40
2017-10-12T18:00:10.895Z,98.70
2017-10-12T18:02:39.367Z,98.70
2017-10-12T18:05:07.794Z,98.90
2017-10-12T18:07:36.894Z,99.20
2017-10-12T18:10:05.968Z,99.30
2017-10-12T18:12:34.451Z,99.30
2017-10-12T18:15:02.787Z,99.60
2017-10-12T18:17:31.177Z,99.70
2017-10-12T18:19:59.444Z,99.90
2017-10-12T18:22:28.132Z,99.90
2017-10-12T18:24:57.372Z,99.90
2017-10-12T18:27:25.724Z,99.90
2017-10-12T18:29:54.087Z,99.90
2017-10-12T18:32:22.357Z,99.90
2017-10-12T18:34:50.546Z,99.90
2017-10-12T18:37:18.832Z,99.90
2017-10-12T18:39:47.053Z,99.90
2017-10-12T18:42:15.209Z,99.90
2017-10-12T18:44:43.482Z,99.90
2017-10-12T18:47:12.418Z,99.90
2017-10-12T18:49:40.907Z,99.90
2017-10-12T18:52:09.195Z,99.90
2017-10-12T18:54:37.448Z,99.90
2017-10-12T18:57:05.621Z,99.90
2017-10-12T18:59:33.821Z,99.90
2017-10-12T19:02:01.973Z,99.90
2017-10-12T19:04:30.164Z,99.90
2017-10-12T19:06:58.322Z,99.90
2017-10-12T19:09:26.469Z,99.90
2017-10-12T19:11:54.793Z,99.90
2017-10-12T19:14:23.023Z,99.90
2017-10-12T19:16:51.186Z,99.90
2017-10-12T19:19:20.149Z,99.90
2017-10-12T19:21:48.514Z,99.90
2017-10-12T19:24:17.010Z,99.90
2017-10-12T19:26:45.311Z,99.90
2017-10-12T19:29:13.621Z,99.90
2017-10-12T19:31:42.080Z,99.90
2017-10-12T19:34:10.822Z,99.90
2017-10-12T19:36:39.435Z,99.90
2017-10-12T19:39:07.778Z,99.90
2017-10-12T19:41:36.082Z,99.90
2017-10-12T19:44:04.523Z,99.90
2017-10-12T19:46:32.750Z,99.90
2017-10-12T19:49:01.900Z,99.90
2017-10-12T19:51:30.091Z,99.90
2017-10-12T19:53:58.405Z,99.90
2017-10-12T19:56:26.666Z,99.90
2017-10-12T20:01:25.186Z,99.90
2017-10-12T20:03:53.672Z,99.90
2017-10-12T20:06:21.961Z,99.90
2017-10-12T20:08:50.359Z,99.90
2017-10-12T20:11:19.787Z,99.90
2017-10-12T20:14:17.548Z,99.90
2017-10-12T20:18:45.405Z,99.90
2017-10-12T20:21:13.996Z,99.90
2017-10-12T20:23:43.200Z,99.90
2017-10-12T20:26:11.534Z,99.90
2017-10-12T20:28:40.609Z,99.90
2017-10-12T20:31:09.705Z,99.90
2017-10-12T20:33:38.586Z,99.90
2017-10-12T20:36:06.753Z,99.90
2017-10-12T20:38:34.898Z,99.90
2017-10-12T20:41:03.058Z,99.90
2017-10-12T20:43:31.322Z,99.90
2017-10-12T20:46:00.308Z,99.90
2017-10-12T20:48:28.425Z,99.90
2017-10-12T20:50:57.629Z,99.90
2017-10-12T20:53:25.752Z,99.90
2017-10-12T20:55:54.017Z,99.90
2017-10-12T20:58:22.143Z,99.90
2017-10-12T21:00:51.126Z,99.90
2017-10-12T21:03:19.334Z,99.90
2017-10-12T21:05:48.238Z,99.90
2017-10-12T21:08:16.377Z,99.90
2017-10-12T21:10:45.292Z,99.90
2017-10-12T21:13:14.467Z,99.90
2017-10-12T21:15:42.638Z,99.90
2017-10-12T21:18:10.781Z,99.90
2017-10-12T21:20:38.935Z,99.90
2017-10-12T21:23:07.060Z,99.90
2017-10-12T21:25:35.972Z,99.90
2017-10-12T21:28:04.106Z,99.90
2017-10-12T21:30:32.251Z,99.90
2017-10-12T21:33:00.658Z,99.90
2017-10-12T21:35:42.810Z,99.90
2017-10-12T21:38:12.710Z,99.90
2017-10-12T21:40:41.911Z,99.90
2017-10-12T21:43:10.083Z,99.90
2017-10-12T21:45:38.228Z,99.90
2017-10-12T21:48:07.132Z,99.90
2017-10-12T21:50:35.272Z,99.90
2017-10-12T21:53:03.423Z,99.90
2017-10-12T21:55:31.572Z,99.90
2017-10-12T21:57:59.702Z,99.90
2017-10-12T22:00:28.640Z,99.90
2017-10-12T22:02:56.830Z,99.90
2017-10-12T22:05:24.962Z,99.90
2017-10-12T22:07:53.101Z,99.90
2017-10-12T22:10:21.350Z,99.90
2017-10-12T22:12:49.508Z,99.90
2017-10-12T22:15:17.672Z,99.90
2017-10-12T22:17:46.718Z,99.90
2017-10-12T22:20:15.644Z,99.90
2017-10-12T22:22:43.806Z,99.90
2017-10-12T22:25:12.346Z,99.90
2017-10-12T22:27:40.559Z,99.90
2017-10-12T22:30:08.708Z,99.90
2017-10-12T22:32:36.913Z,99.90
2017-10-12T22:35:05.051Z,99.90
2017-10-12T22:37:33.196Z,99.90
2017-10-12T22:40:01.345Z,99.90
2017-10-12T22:42:29.471Z,99.90
2017-10-12T22:44:58.379Z,99.90
2017-10-12T22:47:27.584Z,99.90
2017-10-12T22:49:56.487Z,99.90
2017-10-12T22:52:25.051Z,99.90
2017-10-12T22:54:53.206Z,99.90
2017-10-12T22:57:21.395Z,99.90
2017-10-12T22:59:49.605Z,99.90
2017-10-12T23:02:17.746Z,99.90
2017-10-12T23:04:45.921Z,99.90
2017-10-12T23:07:14.130Z,99.90
2017-10-12T23:09:42.277Z,99.90
2017-10-12T23:12:10.412Z,99.90
2017-10-12T23:14:38.531Z,99.90
2017-10-12T23:17:06.684Z,99.90
2017-10-12T23:19:35.574Z,99.90
2017-10-12T23:22:04.492Z,99.90
2017-10-12T23:24:32.612Z,99.90
2017-10-12T23:27:00.757Z,99.90
2017-10-12T23:29:28.902Z,99.90
2017-10-12T23:31:57.125Z,99.90
2017-10-12T23:34:25.258Z,99.90
2017-10-12T23:36:53.404Z,99.90
2017-10-12T23:39:22.868Z,99.90
2017-10-12T23:41:50.995Z,99.90
2017-10-12T23:44:19.187Z,99.90
2017-10-12T23:46:47.333Z,99.90
2017-10-12T23:49:15.471Z,99.90
2017-10-12T23:51:43.591Z,99.90
2017-10-12T23:54:11.746Z,99.90
2017-10-12T23:56:40.653Z,99.90
2017-10-12T23:59:08.824Z,99.90
